sensor_id;sensor_type;location;lat;lon;timestamp;temperature;humidity
54409;DHT22;40315;48.620;9.828;2022-08-01T00:00:54;19.00;99.90
54409;DHT22;40315;48.620;9.828;2022-08-01T00:03:27;19.00;99.90
54409;DHT22;40315;48.620;9.828;2022-08-01T00:05:54;19.00;99.90
54409;DHT22;40315;48.620;9.828;2022-08-01T00:08:31;19.00;99.90
54409;DHT22;40315;48.620;9.828;2022-08-01T00:10:59;19.00;99.90
54409;DHT22;40315;48.620;9.828;2022-08-01T00:13:27;19.00;99.90
54409;DHT22;40315;48.620;9.828;2022-08-01T00:15:55;18.90;99.90
54409;DHT22;40315;48.620;9.828;2022-08-01T00:18:23;18.90;99.90
54409;DHT22;40315;48.620;9.828;2022-08-01T00:21:00;18.90;99.90
54409;DHT22;40315;48.620;9.828;2022-08-01T00:23:42;19.00;99.90
54409;DHT22;40315;48.620;9.828;2022-08-01T00:26:11;18.90;99.90
54409;DHT22;40315;48.620;9.828;2022-08-01T00:28:59;18.80;99.90
54409;DHT22;40315;48.620;9.828;2022-08-01T00:31:26;18.70;99.90
54409;DHT22;40315;48.620;9.828;2022-08-01T00:33:53;18.70;99.90
54409;DHT22;40315;48.620;9.828;2022-08-01T00:36:26;18.60;99.90
54409;DHT22;40315;48.620;9.828;2022-08-01T00:38:53;18.60;99.90
54409;DHT22;40315;48.620;9.828;2022-08-01T00:41:25;18.50;99.90
54409;DHT22;40315;48.620;9.828;2022-08-01T00:47:11;18.50;99.90
54409;DHT22;40315;48.620;9.828;2022-08-01T00:49:39;18.60;99.90
54409;DHT22;40315;48.620;9.828;2022-08-01T00:52:06;18.60;99.90
54409;DHT22;40315;48.620;9.828;2022-08-01T00:54:35;18.60;99.90
54409;DHT22;40315;48.620;9.828;2022-08-01T00:57:03;18.60;99.90
54409;DHT22;40315;48.620;9.828;2022-08-01T00:59:30;18.60;99.90
54409;DHT22;40315;48.620;9.828;2022-08-01T01:01:58;18.60;99.90
54409;DHT22;40315;48.620;9.828;2022-08-01T01:04:26;18.50;99.90
54409;DHT22;40315;48.620;9.828;2022-08-01T01:06:59;18.40;99.90
54409;DHT22;40315;48.620;9.828;2022-08-01T01:09:34;18.50;99.90
54409;DHT22;40315;48.620;9.828;2022-08-01T01:12:13;18.50;99.90
54409;DHT22;40315;48.620;9.828;2022-08-01T01:14:51;18.50;99.90
54409;DHT22;40315;48.620;9.828;2022-08-01T01:17:28;18.50;99.90
54409;DHT22;40315;48.620;9.828;2022-08-01T01:20:00;18.50;99.90
54409;DHT22;40315;48.620;9.828;2022-08-01T01:22:50;18.40;99.90
54409;DHT22;40315;48.620;9.828;2022-08-01T01:25:44;18.40;99.90
54409;DHT22;40315;48.620;9.828;2022-08-01T01:28:20;18.40;99.90
54409;DHT22;40315;48.620;9.828;2022-08-01T01:30:53;18.40;99.90
54409;DHT22;40315;48.620;9.828;2022-08-01T01:33:24;18.40;99.90
54409;DHT22;40315;48.620;9.828;2022-08-01T01:35:59;18.60;99.90
54409;DHT22;40315;48.620;9.828;2022-08-01T01:38:31;18.40;99.90
54409;DHT22;40315;48.620;9.828;2022-08-01T01:44:24;18.40;99.90
54409;DHT22;40315;48.620;9.828;2022-08-01T01:46:54;18.40;99.90
54409;DHT22;40315;48.620;9.828;2022-08-01T01:49:26;18.20;99.90
54409;DHT22;40315;48.620;9.828;2022-08-01T01:51:57;18.20;99.90
54409;DHT22;40315;48.620;9.828;2022-08-01T01:54:30;18.10;99.90
54409;DHT22;40315;48.620;9.828;2022-08-01T01:57:00;18.20;99.90
54409;DHT22;40315;48.620;9.828;2022-08-01T01:59:31;18.10;99.90
54409;DHT22;40315;48.620;9.828;2022-08-01T02:02:03;18.00;99.90
54409;DHT22;40315;48.620;9.828;2022-08-01T02:04:32;18.00;99.90
54409;DHT22;40315;48.620;9.828;2022-08-01T02:07:00;18.00;99.90
54409;DHT22;40315;48.620;9.828;2022-08-01T02:09:28;18.10;99.90
54409;DHT22;40315;48.620;9.828;2022-08-01T02:12:00;18.00;99.90
54409;DHT22;40315;48.620;9.828;2022-08-01T02:14:29;18.10;99.90
54409;DHT22;40315;48.620;9.828;2022-08-01T02:17:00;18.20;99.90
54409;DHT22;40315;48.620;9.828;2022-08-01T02:19:30;18.10;99.90
54409;DHT22;40315;48.620;9.828;2022-08-01T02:22:02;18.20;99.90
54409;DHT22;40315;48.620;9.828;2022-08-01T02:24:36;18.20;99.90
54409;DHT22;40315;48.620;9.828;2022-08-01T02:27:07;18.00;99.90
54409;DHT22;40315;48.620;9.828;2022-08-01T02:29:39;18.10;99.90
54409;DHT22;40315;48.620;9.828;2022-08-01T02:32:13;18.00;99.90
54409;DHT22;40315;48.620;9.828;2022-08-01T02:34:41;17.90;99.90
54409;DHT22;40315;48.620;9.828;2022-08-01T02:37:13;17.90;99.90
54409;DHT22;40315;48.620;9.828;2022-08-01T02:39:42;17.80;99.90
54409;DHT22;40315;48.620;9.828;2022-08-01T02:42:14;17.90;99.90
54409;DHT22;40315;48.620;9.828;2022-08-01T02:44:47;17.80;99.90
54409;DHT22;40315;48.620;9.828;2022-08-01T02:47:19;17.80;99.90
54409;DHT22;40315;48.620;9.828;2022-08-01T02:49:48;17.70;99.90
54409;DHT22;40315;48.620;9.828;2022-08-01T02:52:17;17.80;99.90
54409;DHT22;40315;48.620;9.828;2022-08-01T02:54:48;17.70;99.90
54409;DHT22;40315;48.620;9.828;2022-08-01T02:57:17;17.80;99.90
54409;DHT22;40315;48.620;9.828;2022-08-01T02:59:45;17.90;99.90
54409;DHT22;40315;48.620;9.828;2022-08-01T03:02:15;17.80;99.90
54409;DHT22;40315;48.620;9.828;2022-08-01T03:04:44;17.90;99.90
54409;DHT22;40315;48.620;9.828;2022-08-01T03:07:14;17.90;99.90
54409;DHT22;40315;48.620;9.828;2022-08-01T03:09:45;17.90;99.90
54409;DHT22;40315;48.620;9.828;2022-08-01T03:12:16;17.90;99.90
54409;DHT22;40315;48.620;9.828;2022-08-01T03:14:49;17.90;99.90
54409;DHT22;40315;48.620;9.828;2022-08-01T03:17:21;18.00;99.90
54409;DHT22;40315;48.620;9.828;2022-08-01T03:19:50;18.00;99.90
54409;DHT22;40315;48.620;9.828;2022-08-01T03:22:18;18.00;99.90
54409;DHT22;40315;48.620;9.828;2022-08-01T03:24:49;18.00;99.90
54409;DHT22;40315;48.620;9.828;2022-08-01T03:27:21;18.00;99.90
54409;DHT22;40315;48.620;9.828;2022-08-01T03:29:51;18.00;99.90
54409;DHT22;40315;48.620;9.828;2022-08-01T03:32:21;18.00;99.90
54409;DHT22;40315;48.620;9.828;2022-08-01T03:34:49;18.00;99.90
54409;DHT22;40315;48.620;9.828;2022-08-01T03:37:23;18.00;99.90
54409;DHT22;40315;48.620;9.828;2022-08-01T03:39:57;18.00;99.90
54409;DHT22;40315;48.620;9.828;2022-08-01T03:42:30;18.10;99.90
54409;DHT22;40315;48.620;9.828;2022-08-01T03:45:02;18.10;99.90
54409;DHT22;40315;48.620;9.828;2022-08-01T03:47:33;18.10;99.90
54409;DHT22;40315;48.620;9.828;2022-08-01T03:50:05;18.10;99.90
54409;DHT22;40315;48.620;9.828;2022-08-01T03:52:34;18.10;99.90
54409;DHT22;40315;48.620;9.828;2022-08-01T03:55:05;18.20;99.90
54409;DHT22;40315;48.620;9.828;2022-08-01T03:57:34;18.20;99.90
54409;DHT22;40315;48.620;9.828;2022-08-01T04:00:03;18.30;99.90
54409;DHT22;40315;48.620;9.828;2022-08-01T04:02:39;18.30;99.90
54409;DHT22;40315;48.620;9.828;2022-08-01T04:05:07;18.30;99.90
54409;DHT22;40315;48.620;9.828;2022-08-01T04:07:34;18.30;99.90
54409;DHT22;40315;48.620;9.828;2022-08-01T04:10:05;18.30;99.90
54409;DHT22;40315;48.620;9.828;2022-08-01T04:12:34;18.30;99.90
54409;DHT22;40315;48.620;9.828;2022-08-01T04:15:01;18.30;99.90
54409;DHT22;40315;48.620;9.828;2022-08-01T04:17:28;18.30;99.90
54409;DHT22;40315;48.620;9.828;2022-08-01T04:19:56;18.30;99.90
54409;DHT22;40315;48.620;9.828;2022-08-01T04:22:24;18.30;99.90
54409;DHT22;40315;48.620;9.828;2022-08-01T04:24:55;18.30;99.90
54409;DHT22;40315;48.620;9.828;2022-08-01T04:27:25;18.30;99.90
54409;DHT22;40315;48.620;9.828;2022-08-01T04:29:58;18.20;99.90
54409;DHT22;40315;48.620;9.828;2022-08-01T04:32:28;18.30;99.90
54409;DHT22;40315;48.620;9.828;2022-08-01T04:34:59;18.30;99.90
54409;DHT22;40315;48.620;9.828;2022-08-01T04:37:29;18.40;99.90
54409;DHT22;40315;48.620;9.828;2022-08-01T04:40:00;18.40;99.90
54409;DHT22;40315;48.620;9.828;2022-08-01T04:42:28;18.50;99.90
54409;DHT22;40315;48.620;9.828;2022-08-01T04:44:57;18.50;99.90
54409;DHT22;40315;48.620;9.828;2022-08-01T04:47:25;18.50;99.90
54409;DHT22;40315;48.620;9.828;2022-08-01T04:49:52;18.50;99.90
54409;DHT22;40315;48.620;9.828;2022-08-01T04:52:23;18.60;99.90
54409;DHT22;40315;48.620;9.828;2022-08-01T04:54:58;18.70;99.90
54409;DHT22;40315;48.620;9.828;2022-08-01T04:57:25;18.80;99.90
54409;DHT22;40315;48.620;9.828;2022-08-01T04:59:52;18.70;99.90
54409;DHT22;40315;48.620;9.828;2022-08-01T05:02:22;18.70;99.90
54409;DHT22;40315;48.620;9.828;2022-08-01T05:04:52;18.70;99.90
54409;DHT22;40315;48.620;9.828;2022-08-01T05:07:22;18.70;99.90
54409;DHT22;40315;48.620;9.828;2022-08-01T05:09:50;18.80;99.90
54409;DHT22;40315;48.620;9.828;2022-08-01T05:12:17;18.80;99.90
54409;DHT22;40315;48.620;9.828;2022-08-01T05:14:44;18.90;99.90
54409;DHT22;40315;48.620;9.828;2022-08-01T05:17:12;19.10;99.90
54409;DHT22;40315;48.620;9.828;2022-08-01T05:19:41;19.30;99.90
54409;DHT22;40315;48.620;9.828;2022-08-01T05:22:09;19.50;99.90
54409;DHT22;40315;48.620;9.828;2022-08-01T05:24:39;19.70;99.90
54409;DHT22;40315;48.620;9.828;2022-08-01T05:27:06;19.90;99.90
54409;DHT22;40315;48.620;9.828;2022-08-01T05:29:36;20.40;99.90
54409;DHT22;40315;48.620;9.828;2022-08-01T05:32:03;21.90;99.90
54409;DHT22;40315;48.620;9.828;2022-08-01T05:34:32;23.00;99.90
54409;DHT22;40315;48.620;9.828;2022-08-01T05:37:00;24.30;99.90
54409;DHT22;40315;48.620;9.828;2022-08-01T05:39:27;24.90;99.90
54409;DHT22;40315;48.620;9.828;2022-08-01T05:41:55;24.90;99.90
54409;DHT22;40315;48.620;9.828;2022-08-01T05:44:22;24.60;99.90
54409;DHT22;40315;48.620;9.828;2022-08-01T05:46:51;24.30;99.90
54409;DHT22;40315;48.620;9.828;2022-08-01T05:49:18;23.60;99.90
54409;DHT22;40315;48.620;9.828;2022-08-01T05:51:45;23.40;99.90
54409;DHT22;40315;48.620;9.828;2022-08-01T05:54:12;23.20;99.90
54409;DHT22;40315;48.620;9.828;2022-08-01T05:56:39;22.90;99.90
54409;DHT22;40315;48.620;9.828;2022-08-01T05:59:08;22.70;99.90
54409;DHT22;40315;48.620;9.828;2022-08-01T06:01:35;22.70;99.90
54409;DHT22;40315;48.620;9.828;2022-08-01T06:04:02;22.70;99.90
54409;DHT22;40315;48.620;9.828;2022-08-01T06:06:29;22.80;99.90
54409;DHT22;40315;48.620;9.828;2022-08-01T06:08:56;22.80;99.90
54409;DHT22;40315;48.620;9.828;2022-08-01T06:11:27;23.00;99.90
54409;DHT22;40315;48.620;9.828;2022-08-01T06:13:54;23.20;99.90
54409;DHT22;40315;48.620;9.828;2022-08-01T06:16:25;23.40;99.90
54409;DHT22;40315;48.620;9.828;2022-08-01T06:18:53;23.70;99.90
54409;DHT22;40315;48.620;9.828;2022-08-01T06:21:20;24.10;99.90
54409;DHT22;40315;48.620;9.828;2022-08-01T06:23:47;24.60;99.90
54409;DHT22;40315;48.620;9.828;2022-08-01T06:26:20;25.20;99.90
54409;DHT22;40315;48.620;9.828;2022-08-01T06:28:47;25.80;99.90
54409;DHT22;40315;48.620;9.828;2022-08-01T06:31:14;26.30;99.90
54409;DHT22;40315;48.620;9.828;2022-08-01T06:33:43;26.70;99.90
54409;DHT22;40315;48.620;9.828;2022-08-01T06:36:12;27.20;99.90
54409;DHT22;40315;48.620;9.828;2022-08-01T06:38:46;27.50;99.90
54409;DHT22;40315;48.620;9.828;2022-08-01T06:41:23;27.80;99.90
54409;DHT22;40315;48.620;9.828;2022-08-01T06:43:50;27.50;99.40
54409;DHT22;40315;48.620;9.828;2022-08-01T06:46:20;28.70;98.50
54409;DHT22;40315;48.620;9.828;2022-08-01T06:48:50;29.00;98.00
54409;DHT22;40315;48.620;9.828;2022-08-01T06:51:19;29.00;96.30
54409;DHT22;40315;48.620;9.828;2022-08-01T06:53:48;28.70;97.10
54409;DHT22;40315;48.620;9.828;2022-08-01T06:56:15;28.90;96.80
54409;DHT22;40315;48.620;9.828;2022-08-01T06:58:42;29.20;96.50
54409;DHT22;40315;48.620;9.828;2022-08-01T07:01:12;28.40;95.20
54409;DHT22;40315;48.620;9.828;2022-08-01T07:03:39;27.30;97.10
54409;DHT22;40315;48.620;9.828;2022-08-01T07:06:08;28.00;98.00
54409;DHT22;40315;48.620;9.828;2022-08-01T07:08:47;28.30;96.70
54409;DHT22;40315;48.620;9.828;2022-08-01T07:11:15;28.40;96.30
54409;DHT22;40315;48.620;9.828;2022-08-01T07:13:41;28.70;96.00
54409;DHT22;40315;48.620;9.828;2022-08-01T07:16:14;27.40;96.20
54409;DHT22;40315;48.620;9.828;2022-08-01T07:18:42;27.60;97.10
54409;DHT22;40315;48.620;9.828;2022-08-01T07:21:10;27.80;96.90
54409;DHT22;40315;48.620;9.828;2022-08-01T07:23:37;26.60;97.20
54409;DHT22;40315;48.620;9.828;2022-08-01T07:26:04;27.10;98.60
54409;DHT22;40315;48.620;9.828;2022-08-01T07:28:32;27.70;96.60
54409;DHT22;40315;48.620;9.828;2022-08-01T07:30:59;26.60;98.10
54409;DHT22;40315;48.620;9.828;2022-08-01T07:33:26;25.60;99.50
54409;DHT22;40315;48.620;9.828;2022-08-01T07:35:53;25.50;99.90
54409;DHT22;40315;48.620;9.828;2022-08-01T07:38:22;25.90;99.90
54409;DHT22;40315;48.620;9.828;2022-08-01T07:40:49;25.40;99.90
54409;DHT22;40315;48.620;9.828;2022-08-01T07:43:16;25.30;99.90
54409;DHT22;40315;48.620;9.828;2022-08-01T07:45:43;26.30;99.90
54409;DHT22;40315;48.620;9.828;2022-08-01T07:48:19;27.40;98.80
54409;DHT22;40315;48.620;9.828;2022-08-01T07:50:49;28.30;98.20
54409;DHT22;40315;48.620;9.828;2022-08-01T07:53:17;28.90;96.50
54409;DHT22;40315;48.620;9.828;2022-08-01T07:55:45;27.50;97.60
54409;DHT22;40315;48.620;9.828;2022-08-01T07:58:12;27.40;97.40
54409;DHT22;40315;48.620;9.828;2022-08-01T08:00:39;27.20;98.10
54409;DHT22;40315;48.620;9.828;2022-08-01T08:03:06;27.80;96.80
54409;DHT22;40315;48.620;9.828;2022-08-01T08:05:33;27.50;97.20
54409;DHT22;40315;48.620;9.828;2022-08-01T08:08:08;26.50;98.20
54409;DHT22;40315;48.620;9.828;2022-08-01T08:10:36;27.50;97.20
54409;DHT22;40315;48.620;9.828;2022-08-01T08:13:04;26.90;97.20
54409;DHT22;40315;48.620;9.828;2022-08-01T08:15:31;26.30;97.50
54409;DHT22;40315;48.620;9.828;2022-08-01T08:17:58;25.80;98.80
54409;DHT22;40315;48.620;9.828;2022-08-01T08:20:25;25.40;99.60
54409;DHT22;40315;48.620;9.828;2022-08-01T08:22:55;25.00;99.90
54409;DHT22;40315;48.620;9.828;2022-08-01T08:25:24;24.90;99.90
54409;DHT22;40315;48.620;9.828;2022-08-01T08:27:53;25.20;99.90
54409;DHT22;40315;48.620;9.828;2022-08-01T08:30:22;24.70;99.90
54409;DHT22;40315;48.620;9.828;2022-08-01T08:32:49;25.10;99.90
54409;DHT22;40315;48.620;9.828;2022-08-01T08:35:16;25.40;99.90
54409;DHT22;40315;48.620;9.828;2022-08-01T08:37:45;25.70;99.90
54409;DHT22;40315;48.620;9.828;2022-08-01T08:40:14;26.00;99.60
54409;DHT22;40315;48.620;9.828;2022-08-01T08:42:43;26.30;99.90
54409;DHT22;40315;48.620;9.828;2022-08-01T08:45:12;25.90;99.00
54409;DHT22;40315;48.620;9.828;2022-08-01T08:47:41;25.30;99.90
54409;DHT22;40315;48.620;9.828;2022-08-01T08:50:12;24.70;99.90
54409;DHT22;40315;48.620;9.828;2022-08-01T08:52:43;24.40;99.90
54409;DHT22;40315;48.620;9.828;2022-08-01T08:55:16;24.40;99.90
54409;DHT22;40315;48.620;9.828;2022-08-01T08:57:44;24.30;99.90
54409;DHT22;40315;48.620;9.828;2022-08-01T09:00:13;24.10;99.90
54409;DHT22;40315;48.620;9.828;2022-08-01T09:02:46;24.20;99.90
54409;DHT22;40315;48.620;9.828;2022-08-01T09:05:14;25.00;99.90
54409;DHT22;40315;48.620;9.828;2022-08-01T09:07:42;25.50;99.90
54409;DHT22;40315;48.620;9.828;2022-08-01T09:10:09;25.10;99.90
54409;DHT22;40315;48.620;9.828;2022-08-01T09:12:37;26.00;99.90
54409;DHT22;40315;48.620;9.828;2022-08-01T09:15:05;25.70;99.90
54409;DHT22;40315;48.620;9.828;2022-08-01T09:17:40;25.10;99.90
54409;DHT22;40315;48.620;9.828;2022-08-01T09:20:22;24.90;99.90
54409;DHT22;40315;48.620;9.828;2022-08-01T09:22:54;25.00;99.90
54409;DHT22;40315;48.620;9.828;2022-08-01T09:25:21;24.80;99.90
54409;DHT22;40315;48.620;9.828;2022-08-01T09:27:48;24.90;99.90
54409;DHT22;40315;48.620;9.828;2022-08-01T09:30:28;24.80;99.90
54409;DHT22;40315;48.620;9.828;2022-08-01T09:33:05;25.20;99.90
54409;DHT22;40315;48.620;9.828;2022-08-01T09:35:35;25.20;99.90
54409;DHT22;40315;48.620;9.828;2022-08-01T09:38:16;25.30;99.90
54409;DHT22;40315;48.620;9.828;2022-08-01T09:40:53;25.40;99.90
54409;DHT22;40315;48.620;9.828;2022-08-01T09:43:22;24.80;99.90
54409;DHT22;40315;48.620;9.828;2022-08-01T09:45:50;24.90;99.90
54409;DHT22;40315;48.620;9.828;2022-08-01T09:48:18;24.80;99.90
54409;DHT22;40315;48.620;9.828;2022-08-01T09:50:48;24.50;99.90
54409;DHT22;40315;48.620;9.828;2022-08-01T09:53:16;24.80;99.90
54409;DHT22;40315;48.620;9.828;2022-08-01T09:55:44;25.30;99.90
54409;DHT22;40315;48.620;9.828;2022-08-01T09:58:11;25.70;99.90
54409;DHT22;40315;48.620;9.828;2022-08-01T10:00:39;25.80;99.90
54409;DHT22;40315;48.620;9.828;2022-08-01T10:03:27;26.00;99.90
54409;DHT22;40315;48.620;9.828;2022-08-01T10:05:56;26.30;99.20
54409;DHT22;40315;48.620;9.828;2022-08-01T10:08:24;26.40;98.30
54409;DHT22;40315;48.620;9.828;2022-08-01T10:11:11;25.80;99.10
54409;DHT22;40315;48.620;9.828;2022-08-01T10:13:39;25.20;99.50
54409;DHT22;40315;48.620;9.828;2022-08-01T10:16:10;25.10;99.90
54409;DHT22;40315;48.620;9.828;2022-08-01T10:18:41;25.10;99.80
54409;DHT22;40315;48.620;9.828;2022-08-01T10:21:10;25.00;99.90
54409;DHT22;40315;48.620;9.828;2022-08-01T10:23:38;25.60;99.90
54409;DHT22;40315;48.620;9.828;2022-08-01T10:26:05;26.60;99.00
54409;DHT22;40315;48.620;9.828;2022-08-01T10:28:35;26.30;96.80
54409;DHT22;40315;48.620;9.828;2022-08-01T10:31:02;26.30;97.00
54409;DHT22;40315;48.620;9.828;2022-08-01T10:33:30;26.50;96.80
54409;DHT22;40315;48.620;9.828;2022-08-01T10:35:57;26.40;96.60
54409;DHT22;40315;48.620;9.828;2022-08-01T10:38:27;27.00;97.70
54409;DHT22;40315;48.620;9.828;2022-08-01T10:40:56;27.80;96.00
54409;DHT22;40315;48.620;9.828;2022-08-01T10:43:24;27.80;95.30
54409;DHT22;40315;48.620;9.828;2022-08-01T10:45:51;27.90;93.40
54409;DHT22;40315;48.620;9.828;2022-08-01T10:48:22;27.70;95.30
54409;DHT22;40315;48.620;9.828;2022-08-01T10:50:53;27.90;94.50
54409;DHT22;40315;48.620;9.828;2022-08-01T10:53:24;27.40;94.90
54409;DHT22;40315;48.620;9.828;2022-08-01T10:55:59;27.40;94.60
54409;DHT22;40315;48.620;9.828;2022-08-01T10:58:29;27.20;95.20
54409;DHT22;40315;48.620;9.828;2022-08-01T11:01:21;26.80;95.00
54409;DHT22;40315;48.620;9.828;2022-08-01T11:04:08;26.80;95.60
54409;DHT22;40315;48.620;9.828;2022-08-01T11:06:49;26.90;95.10
54409;DHT22;40315;48.620;9.828;2022-08-01T11:09:23;26.60;95.90
54409;DHT22;40315;48.620;9.828;2022-08-01T11:12:03;27.00;95.80
54409;DHT22;40315;48.620;9.828;2022-08-01T11:14:32;27.60;95.40
54409;DHT22;40315;48.620;9.828;2022-08-01T11:17:30;27.90;94.70
54409;DHT22;40315;48.620;9.828;2022-08-01T11:20:10;27.80;93.50
54409;DHT22;40315;48.620;9.828;2022-08-01T11:26:10;28.40;93.80
54409;DHT22;40315;48.620;9.828;2022-08-01T11:28:40;28.10;94.00
54409;DHT22;40315;48.620;9.828;2022-08-01T11:31:30;27.60;94.20
54409;DHT22;40315;48.620;9.828;2022-08-01T11:33:59;27.40;95.60
54409;DHT22;40315;48.620;9.828;2022-08-01T11:36:28;27.70;96.00
54409;DHT22;40315;48.620;9.828;2022-08-01T11:39:18;28.40;95.00
54409;DHT22;40315;48.620;9.828;2022-08-01T11:41:48;28.60;94.80
54409;DHT22;40315;48.620;9.828;2022-08-01T11:44:19;28.30;93.70
54409;DHT22;40315;48.620;9.828;2022-08-01T11:46:56;28.00;93.30
54409;DHT22;40315;48.620;9.828;2022-08-01T11:49:30;27.40;93.90
54409;DHT22;40315;48.620;9.828;2022-08-01T11:52:00;26.70;94.80
54409;DHT22;40315;48.620;9.828;2022-08-01T11:54:29;26.40;95.20
54409;DHT22;40315;48.620;9.828;2022-08-01T11:56:58;26.10;95.80
54409;DHT22;40315;48.620;9.828;2022-08-01T11:59:34;26.10;96.60
54409;DHT22;40315;48.620;9.828;2022-08-01T12:02:02;26.30;96.40
54409;DHT22;40315;48.620;9.828;2022-08-01T12:04:45;26.10;96.60
54409;DHT22;40315;48.620;9.828;2022-08-01T12:07:13;26.10;96.90
54409;DHT22;40315;48.620;9.828;2022-08-01T12:09:40;26.10;97.20
54409;DHT22;40315;48.620;9.828;2022-08-01T12:12:15;26.20;97.10
54409;DHT22;40315;48.620;9.828;2022-08-01T12:14:47;26.00;97.10
54409;DHT22;40315;48.620;9.828;2022-08-01T12:17:26;25.90;97.70
54409;DHT22;40315;48.620;9.828;2022-08-01T12:20:05;26.30;97.00
54409;DHT22;40315;48.620;9.828;2022-08-01T12:22:32;26.70;97.00
54409;DHT22;40315;48.620;9.828;2022-08-01T12:25:06;27.00;96.50
54409;DHT22;40315;48.620;9.828;2022-08-01T12:27:36;27.40;96.70
54409;DHT22;40315;48.620;9.828;2022-08-01T12:30:07;27.30;95.10
54409;DHT22;40315;48.620;9.828;2022-08-01T12:32:36;27.00;95.50
54409;DHT22;40315;48.620;9.828;2022-08-01T12:35:07;26.50;96.10
54409;DHT22;40315;48.620;9.828;2022-08-01T12:37:38;26.10;97.10
54409;DHT22;40315;48.620;9.828;2022-08-01T12:40:18;26.00;96.90
54409;DHT22;40315;48.620;9.828;2022-08-01T12:42:47;25.70;97.00
54409;DHT22;40315;48.620;9.828;2022-08-01T12:45:19;25.80;96.80
54409;DHT22;40315;48.620;9.828;2022-08-01T12:47:47;25.80;96.70
54409;DHT22;40315;48.620;9.828;2022-08-01T12:50:19;25.70;97.40
54409;DHT22;40315;48.620;9.828;2022-08-01T12:52:49;25.60;98.40
54409;DHT22;40315;48.620;9.828;2022-08-01T12:55:19;25.80;97.80
54409;DHT22;40315;48.620;9.828;2022-08-01T12:57:49;26.00;97.80
54409;DHT22;40315;48.620;9.828;2022-08-01T13:00:21;25.80;98.20
54409;DHT22;40315;48.620;9.828;2022-08-01T13:03:00;25.60;98.50
54409;DHT22;40315;48.620;9.828;2022-08-01T13:05:27;24.70;99.90
54409;DHT22;40315;48.620;9.828;2022-08-01T13:07:54;24.00;99.90
54409;DHT22;40315;48.620;9.828;2022-08-01T13:10:26;24.30;99.90
54409;DHT22;40315;48.620;9.828;2022-08-01T13:12:57;24.70;99.90
54409;DHT22;40315;48.620;9.828;2022-08-01T13:15:30;24.70;99.90
54409;DHT22;40315;48.620;9.828;2022-08-01T13:17:59;24.60;99.90
54409;DHT22;40315;48.620;9.828;2022-08-01T13:20:30;25.00;99.90
54409;DHT22;40315;48.620;9.828;2022-08-01T13:23:14;25.50;99.90
54409;DHT22;40315;48.620;9.828;2022-08-01T13:25:49;25.80;99.90
54409;DHT22;40315;48.620;9.828;2022-08-01T13:28:18;26.30;99.90
54409;DHT22;40315;48.620;9.828;2022-08-01T13:30:53;26.60;99.90
54409;DHT22;40315;48.620;9.828;2022-08-01T13:33:21;26.60;99.90
54409;DHT22;40315;48.620;9.828;2022-08-01T13:35:50;26.70;99.90
54409;DHT22;40315;48.620;9.828;2022-08-01T13:38:17;26.60;99.90
54409;DHT22;40315;48.620;9.828;2022-08-01T13:40:45;26.60;99.90
54409;DHT22;40315;48.620;9.828;2022-08-01T13:43:12;26.60;99.60
54409;DHT22;40315;48.620;9.828;2022-08-01T13:45:40;26.80;99.30
54409;DHT22;40315;48.620;9.828;2022-08-01T13:48:09;27.10;99.30
54409;DHT22;40315;48.620;9.828;2022-08-01T13:50:36;27.40;99.10
54409;DHT22;40315;48.620;9.828;2022-08-01T13:53:07;27.70;98.10
54409;DHT22;40315;48.620;9.828;2022-08-01T13:55:35;28.10;97.00
54409;DHT22;40315;48.620;9.828;2022-08-01T13:58:02;28.30;97.40
54409;DHT22;40315;48.620;9.828;2022-08-01T14:00:29;28.50;95.70
54409;DHT22;40315;48.620;9.828;2022-08-01T14:02:56;28.90;96.10
54409;DHT22;40315;48.620;9.828;2022-08-01T14:27:27;30.20;90.90
54409;DHT22;40315;48.620;9.828;2022-08-01T14:29:56;30.20;89.50
54409;DHT22;40315;48.620;9.828;2022-08-01T14:32:26;29.80;88.70
54409;DHT22;40315;48.620;9.828;2022-08-01T14:34:55;30.00;88.30
54409;DHT22;40315;48.620;9.828;2022-08-01T14:37:22;30.50;89.20
54409;DHT22;40315;48.620;9.828;2022-08-01T14:39:50;30.70;87.80
54409;DHT22;40315;48.620;9.828;2022-08-01T14:42:17;30.00;88.60
54409;DHT22;40315;48.620;9.828;2022-08-01T14:44:47;30.30;88.00
54409;DHT22;40315;48.620;9.828;2022-08-01T14:47:15;29.40;88.80
54409;DHT22;40315;48.620;9.828;2022-08-01T14:49:42;29.10;90.60
54409;DHT22;40315;48.620;9.828;2022-08-01T14:52:09;28.90;91.30
54409;DHT22;40315;48.620;9.828;2022-08-01T14:54:36;27.20;90.80
54409;DHT22;40315;48.620;9.828;2022-08-01T14:57:03;28.00;92.80
54409;DHT22;40315;48.620;9.828;2022-08-01T14:59:33;27.90;92.50
54409;DHT22;40315;48.620;9.828;2022-08-01T15:02:02;28.00;92.70
54409;DHT22;40315;48.620;9.828;2022-08-01T15:04:29;28.30;93.20
54409;DHT22;40315;48.620;9.828;2022-08-01T15:06:56;28.60;92.20
54409;DHT22;40315;48.620;9.828;2022-08-01T15:09:26;28.50;92.60
54409;DHT22;40315;48.620;9.828;2022-08-01T15:11:53;28.80;92.00
54409;DHT22;40315;48.620;9.828;2022-08-01T15:14:20;29.30;91.20
54409;DHT22;40315;48.620;9.828;2022-08-01T15:17:06;30.00;91.70
54409;DHT22;40315;48.620;9.828;2022-08-01T15:19:33;30.50;90.20
54409;DHT22;40315;48.620;9.828;2022-08-01T15:22:02;30.90;88.40
54409;DHT22;40315;48.620;9.828;2022-08-01T15:24:29;31.00;87.20
54409;DHT22;40315;48.620;9.828;2022-08-01T15:26:56;30.20;88.90
54409;DHT22;40315;48.620;9.828;2022-08-01T15:29:23;29.90;90.10
54409;DHT22;40315;48.620;9.828;2022-08-01T15:31:50;30.70;87.40
54409;DHT22;40315;48.620;9.828;2022-08-01T15:34:22;30.70;87.00
54409;DHT22;40315;48.620;9.828;2022-08-01T15:36:49;30.20;86.80
54409;DHT22;40315;48.620;9.828;2022-08-01T15:39:20;29.20;89.10
54409;DHT22;40315;48.620;9.828;2022-08-01T15:41:48;28.60;90.50
54409;DHT22;40315;48.620;9.828;2022-08-01T15:44:15;28.80;90.70
54409;DHT22;40315;48.620;9.828;2022-08-01T15:46:47;28.80;90.40
54409;DHT22;40315;48.620;9.828;2022-08-01T15:49:17;28.90;90.40
54409;DHT22;40315;48.620;9.828;2022-08-01T15:51:47;28.40;90.90
54409;DHT22;40315;48.620;9.828;2022-08-01T15:54:16;28.10;91.30
54409;DHT22;40315;48.620;9.828;2022-08-01T15:56:44;28.30;92.10
54409;DHT22;40315;48.620;9.828;2022-08-01T15:59:13;28.50;92.20
54409;DHT22;40315;48.620;9.828;2022-08-01T16:01:40;28.40;91.70
54409;DHT22;40315;48.620;9.828;2022-08-01T16:04:08;28.20;92.30
54409;DHT22;40315;48.620;9.828;2022-08-01T16:06:37;28.40;94.10
54409;DHT22;40315;48.620;9.828;2022-08-01T16:09:06;28.40;93.40
54409;DHT22;40315;48.620;9.828;2022-08-01T16:11:33;28.40;93.20
54409;DHT22;40315;48.620;9.828;2022-08-01T16:14:00;28.20;93.70
54409;DHT22;40315;48.620;9.828;2022-08-01T16:16:28;28.00;94.30
54409;DHT22;40315;48.620;9.828;2022-08-01T16:18:58;27.80;95.00
54409;DHT22;40315;48.620;9.828;2022-08-01T16:21:25;27.50;96.40